Time;durP1;ratioP1;P1;durP2;ratioP2;P2;SDS_P1;SDS_P2;PMS_P1;PMS_P2;Temp;Humidity;BMP_temperature;BMP_pressure;BME280_temperature;BME280_humidity;BME280_pressure;Samples;Min_cycle;Max_cycle;Signal;HPM_P1;HPM_P2
2023/06/17 00:02:01;;;;;;;10.82;6.85;;;14.40;99.90;;;;;;5019344;28;20191;-83
2023/06/17 00:04:27;;;;;;;11.55;7.00;;;14.40;99.90;;;;;;5017161;28;20174;-82
2023/06/17 00:06:53;;;;;;;11.30;7.20;;;14.40;99.90;;;;;;5016234;28;20185;-83
2023/06/17 00:09:18;;;;;;;16.40;7.90;;;14.40;99.90;;;;;;5017143;28;20283;-83
2023/06/17 00:11:44;;;;;;;12.23;7.65;;;14.40;99.90;;;;;;5017449;28;20185;-82
2023/06/17 00:14:10;;;;;;;14.48;7.70;;;14.40;99.90;;;;;;5017095;28;20231;-82
2023/06/17 00:16:43;;;;;;;11.98;7.75;;;14.40;99.90;;;;;;5017191;28;20189;-83
2023/06/17 00:19:15;;;;;;;11.90;7.72;;;14.40;99.90;;;;;;5017300;28;20165;-83
2023/06/17 00:21:41;;;;;;;12.70;8.00;;;14.40;99.90;;;;;;5017146;28;20173;-82
2023/06/17 00:24:07;;;;;;;13.60;7.60;;;14.40;99.90;;;;;;5015453;28;20192;-82
2023/06/17 00:26:32;;;;;;;12.07;7.60;;;14.40;99.90;;;;;;5016444;28;20316;-82
2023/06/17 00:28:58;;;;;;;13.30;7.60;;;14.40;99.90;;;;;;5016659;28;20255;-84
2023/06/17 00:31:24;;;;;;;14.32;8.70;;;14.40;99.90;;;;;;5016748;28;20184;-83
2023/06/17 00:33:50;;;;;;;11.48;7.72;;;14.40;99.90;;;;;;4999512;28;20196;-84
2023/06/17 00:36:15;;;;;;;11.68;7.75;;;14.40;99.90;;;;;;5017093;28;20177;-85
2023/06/17 00:38:41;;;;;;;12.90;8.80;;;14.40;99.90;;;;;;5022880;28;20315;-85
2023/06/17 00:41:06;;;;;;;10.98;8.05;;;14.50;99.90;;;;;;4998964;28;20185;-86
2023/06/17 00:43:32;;;;;;;12.25;8.05;;;14.40;99.90;;;;;;4998952;28;20185;-85
2023/06/17 00:45:59;;;;;;;10.57;7.13;;;14.40;99.90;;;;;;5016715;28;20177;-85
2023/06/17 00:48:24;;;;;;;12.73;8.57;;;14.40;99.90;;;;;;4999177;28;20213;-83
2023/06/17 00:51:01;;;;;;;17.10;8.50;;;14.40;99.90;;;;;;5016525;28;20630;-84
2023/06/17 00:53:29;;;;;;;14.18;8.90;;;14.40;99.90;;;;;;5000183;28;20197;-84
2023/06/17 00:55:55;;;;;;;13.43;7.70;;;14.40;99.90;;;;;;5016878;28;20169;-85
2023/06/17 00:58:20;;;;;;;13.73;8.27;;;14.40;99.90;;;;;;5016794;28;20260;-86
2023/06/17 01:00:46;;;;;;;12.60;8.82;;;14.40;99.90;;;;;;5029482;28;20181;-85
2023/06/17 01:03:13;;;;;;;12.95;7.90;;;14.40;99.90;;;;;;5038178;28;20188;-84
2023/06/17 01:05:40;;;;;;;12.57;8.52;;;14.40;99.90;;;;;;5018919;28;20219;-84
2023/06/17 01:08:26;;;;;;;13.25;8.30;;;14.40;99.90;;;;;;5009366;28;20586;-83
2023/06/17 01:10:54;;;;;;;10.73;7.05;;;14.40;99.90;;;;;;5025491;28;20188;-84
2023/06/17 01:13:22;;;;;;;14.57;8.50;;;14.30;99.90;;;;;;5018857;28;20173;-83
2023/06/17 01:15:50;;;;;;;15.30;8.32;;;14.30;99.90;;;;;;5021174;28;20264;-83
2023/06/17 01:18:17;;;;;;;14.23;7.25;;;14.30;99.90;;;;;;5018818;28;20181;-85
2023/06/17 01:20:44;;;;;;;12.55;8.50;;;14.30;99.90;;;;;;5016644;28;20178;-83
2023/06/17 01:23:12;;;;;;;11.07;7.57;;;14.30;99.90;;;;;;4999430;28;20653;-83
2023/06/17 01:25:37;;;;;;;14.30;8.23;;;14.30;99.90;;;;;;5016950;28;20189;-84
2023/06/17 01:28:16;;;;;;;13.40;7.57;;;14.30;99.90;;;;;;5017100;28;20604;-84
2023/06/17 01:30:47;;;;;;;11.18;7.38;;;14.30;99.90;;;;;;5016476;28;20173;-84
2023/06/17 01:33:15;;;;;;;14.30;8.68;;;14.30;99.90;;;;;;5016724;28;20166;-84
2023/06/17 01:35:48;;;;;;;16.60;8.40;;;14.30;99.90;;;;;;4998147;28;20181;-85
2023/06/17 01:39:06;;;;;;;12.80;8.00;;;14.30;99.90;;;;;;5016213;28;20169;-85
2023/06/17 01:41:39;;;;;;;13.10;8.18;;;14.30;99.90;;;;;;4974714;28;20200;-83
2023/06/17 01:44:06;;;;;;;14.15;9.25;;;14.30;99.90;;;;;;4998054;28;20268;-82
2023/06/17 01:46:32;;;;;;;14.82;9.60;;;14.30;99.90;;;;;;5015261;28;20731;-82
2023/06/17 01:48:58;;;;;;;15.90;9.65;;;14.30;99.90;;;;;;4997759;28;20264;-82
2023/06/17 01:51:24;;;;;;;14.10;8.90;;;14.30;99.90;;;;;;5015150;28;20250;-81
2023/06/17 01:53:50;;;;;;;18.23;9.05;;;14.30;99.90;;;;;;5015875;28;20535;-81
2023/06/17 01:56:16;;;;;;;14.05;10.05;;;14.30;99.90;;;;;;5015459;28;20170;-81
2023/06/17 01:58:42;;;;;;;13.70;9.25;;;14.30;99.90;;;;;;5015549;28;20543;-82
2023/06/17 02:01:07;;;;;;;14.80;9.93;;;14.30;99.90;;;;;;5014581;28;20554;-82
2023/06/17 02:03:33;;;;;;;16.88;10.50;;;14.30;99.90;;;;;;5014931;28;20184;-81
2023/06/17 02:05:59;;;;;;;17.25;9.73;;;14.30;99.90;;;;;;5015278;28;20192;-82
2023/06/17 02:08:25;;;;;;;15.07;10.00;;;14.30;99.90;;;;;;5014797;28;20213;-81
2023/06/17 02:10:51;;;;;;;16.42;10.65;;;14.30;99.90;;;;;;5015046;28;20260;-82
2023/06/17 02:13:17;;;;;;;16.35;9.75;;;14.30;99.90;;;;;;4997546;28;20580;-82
2023/06/17 02:15:42;;;;;;;15.73;9.68;;;14.30;99.90;;;;;;5014726;28;20610;-82
2023/06/17 02:18:09;;;;;;;14.95;9.63;;;14.30;99.90;;;;;;5015006;28;20268;-83
2023/06/17 02:20:35;;;;;;;15.30;9.48;;;14.30;99.90;;;;;;4997049;28;20510;-83
2023/06/17 02:23:00;;;;;;;16.85;10.05;;;14.30;99.90;;;;;;5015098;28;20236;-83
2023/06/17 02:25:26;;;;;;;20.33;9.48;;;14.30;99.90;;;;;;5014544;28;20177;-83
2023/06/17 02:27:52;;;;;;;16.40;10.48;;;14.30;99.90;;;;;;5014845;28;20240;-83
2023/06/17 02:30:18;;;;;;;17.75;11.68;;;14.30;99.90;;;;;;5014636;28;20181;-84
2023/06/17 02:32:43;;;;;;;16.02;10.48;;;14.30;99.90;;;;;;5014447;28;20192;-85
2023/06/17 02:35:10;;;;;;;15.13;9.88;;;14.30;99.90;;;;;;4997122;28;20184;-84
2023/06/17 02:37:37;;;;;;;15.90;9.68;;;14.30;99.90;;;;;;5014359;28;20173;-84
2023/06/17 02:40:07;;;;;;;16.25;10.30;;;14.30;99.90;;;;;;5014176;28;20177;-84
2023/06/17 02:42:33;;;;;;;13.43;9.48;;;14.30;99.90;;;;;;5014258;28;20178;-83
2023/06/17 02:44:58;;;;;;;12.32;8.25;;;14.30;99.90;;;;;;5014660;28;20173;-83
2023/06/17 02:47:24;;;;;;;12.18;8.40;;;14.30;99.90;;;;;;5014023;28;20215;-82
2023/06/17 02:49:50;;;;;;;15.75;8.75;;;14.30;99.90;;;;;;5027188;28;20187;-82
2023/06/17 02:52:15;;;;;;;13.43;8.20;;;14.30;99.90;;;;;;5037385;28;20177;-83
2023/06/17 02:54:42;;;;;;;13.88;8.50;;;14.30;99.90;;;;;;5036384;28;20197;-82
2023/06/17 02:57:08;;;;;;;13.52;8.77;;;14.30;99.90;;;;;;5024380;28;20243;-82
2023/06/17 02:59:36;;;;;;;12.43;8.60;;;14.30;99.90;;;;;;5013037;28;20193;-82
2023/06/17 03:02:01;;;;;;;11.18;7.30;;;14.30;99.90;;;;;;5014240;28;20200;-82
2023/06/17 03:04:35;;;;;;;12.05;7.97;;;14.30;99.90;;;;;;5014077;28;20181;-83
2023/06/17 03:07:15;;;;;;;13.88;8.80;;;14.30;99.90;;;;;;5013920;28;20705;-82
2023/06/17 03:09:41;;;;;;;14.65;8.13;;;14.30;99.90;;;;;;5013901;28;20216;-82
2023/06/17 03:12:07;;;;;;;12.02;8.27;;;14.30;99.90;;;;;;5014021;28;20387;-83
2023/06/17 03:14:33;;;;;;;13.25;8.18;;;14.30;99.90;;;;;;5013582;28;20192;-83
2023/06/17 03:16:59;;;;;;;13.02;8.85;;;14.30;99.90;;;;;;5013688;28;20554;-83
2023/06/17 03:19:25;;;;;;;12.57;8.25;;;14.30;99.90;;;;;;5013902;28;20173;-83
2023/06/17 03:21:51;;;;;;;14.00;8.02;;;14.30;99.90;;;;;;5013681;28;20183;-83
2023/06/17 03:24:17;;;;;;;12.25;8.15;;;14.40;99.90;;;;;;5013950;28;20169;-83
2023/06/17 03:26:44;;;;;;;11.10;7.20;;;14.30;99.90;;;;;;5013598;28;20279;-83
2023/06/17 03:29:09;;;;;;;11.38;7.57;;;14.30;99.90;;;;;;5013688;28;20735;-84
2023/06/17 03:31:35;;;;;;;11.75;7.70;;;14.30;99.90;;;;;;4995795;28;20178;-83
2023/06/17 03:34:01;;;;;;;11.52;7.10;;;14.30;99.90;;;;;;5013998;28;20180;-84
2023/06/17 03:36:29;;;;;;;13.13;8.10;;;14.30;99.90;;;;;;5013251;28;20173;-84
2023/06/17 03:38:56;;;;;;;11.27;7.43;;;14.30;99.90;;;;;;5013226;28;20259;-84
2023/06/17 03:41:23;;;;;;;12.80;8.27;;;14.30;99.90;;;;;;5013683;28;20606;-84
2023/06/17 03:43:48;;;;;;;11.15;7.22;;;14.30;99.90;;;;;;5013367;28;20175;-84
2023/06/17 03:46:14;;;;;;;10.27;6.53;;;14.30;99.90;;;;;;5013637;28;20173;-85
2023/06/17 03:48:40;;;;;;;9.63;6.85;;;14.30;99.90;;;;;;5012943;28;20299;-84
2023/06/17 03:51:06;;;;;;;12.45;6.93;;;14.30;99.90;;;;;;5013589;28;20188;-84
2023/06/17 03:53:32;;;;;;;9.73;6.75;;;14.20;99.90;;;;;;5013533;28;20180;-84
2023/06/17 03:55:57;;;;;;;15.52;6.03;;;14.30;99.90;;;;;;5013309;28;20177;-85
2023/06/17 03:58:24;;;;;;;13.35;7.00;;;14.20;99.90;;;;;;4996155;28;20177;-85
2023/06/17 04:00:50;;;;;;;11.77;6.95;;;14.20;99.90;;;;;;5013292;28;20618;-84
2023/06/17 04:03:17;;;;;;;9.02;6.25;;;14.20;99.90;;;;;;5013460;28;20180;-85
2023/06/17 04:05:44;;;;;;;8.23;6.35;;;14.20;99.90;;;;;;5013277;28;20201;-84
2023/06/17 04:08:10;;;;;;;11.18;7.40;;;14.20;99.90;;;;;;5013178;28;20213;-84
2023/06/17 04:10:36;;;;;;;9.13;6.28;;;14.20;99.90;;;;;;5013344;28;20177;-83
2023/06/17 04:13:02;;;;;;;8.73;6.47;;;14.30;99.90;;;;;;5013399;28;20188;-84
2023/06/17 04:15:28;;;;;;;10.45;6.68;;;14.20;99.90;;;;;;5013272;28;20181;-84
2023/06/17 04:17:53;;;;;;;7.63;6.20;;;14.30;99.90;;;;;;5013065;28;20243;-83
2023/06/17 04:20:19;;;;;;;9.23;6.38;;;14.30;99.90;;;;;;5013323;28;20260;-84
2023/06/17 04:22:45;;;;;;;10.05;6.60;;;14.30;99.90;;;;;;5013079;28;20175;-84
2023/06/17 04:25:12;;;;;;;8.35;5.70;;;14.30;99.90;;;;;;5013135;28;20186;-85
2023/06/17 04:27:39;;;;;;;10.13;6.50;;;14.30;99.90;;;;;;5013110;28;20243;-83
2023/06/17 04:30:08;;;;;;;8.55;5.85;;;14.30;99.90;;;;;;5013229;28;20186;-84
2023/06/17 04:32:35;;;;;;;9.13;5.88;;;14.30;99.90;;;;;;5013045;28;20279;-85
2023/06/17 04:35:03;;;;;;;8.65;6.03;;;14.30;99.90;;;;;;5012646;28;20181;-85
2023/06/17 04:37:30;;;;;;;8.00;5.85;;;14.30;99.90;;;;;;5013201;28;20188;-85
2023/06/17 04:39:56;;;;;;;7.28;5.03;;;14.40;99.90;;;;;;5012958;28;20172;-85
2023/06/17 04:42:22;;;;;;;9.15;6.20;;;14.30;99.90;;;;;;4995742;28;20216;-85
2023/06/17 04:44:48;;;;;;;8.07;5.45;;;14.40;99.90;;;;;;5011721;28;20602;-85
2023/06/17 04:47:15;;;;;;;9.93;5.88;;;14.30;99.90;;;;;;5013904;28;20626;-85
2023/06/17 04:49:41;;;;;;;11.45;6.25;;;14.40;99.90;;;;;;5016420;28;20259;-84
2023/06/17 04:52:13;;;;;;;11.38;5.80;;;14.40;99.90;;;;;;5016624;28;20185;-84
2023/06/17 04:54:39;;;;;;;8.95;6.10;;;14.40;99.90;;;;;;5016391;28;20201;-83
2023/06/17 04:57:06;;;;;;;9.13;5.88;;;14.40;99.90;;;;;;5016468;28;20231;-84
2023/06/17 04:59:32;;;;;;;8.77;5.47;;;14.50;99.90;;;;;;5016514;28;20526;-83
2023/06/17 05:01:57;;;;;;;10.05;5.90;;;14.50;99.90;;;;;;5015984;28;20188;-83
2023/06/17 05:04:23;;;;;;;9.10;6.18;;;14.50;99.90;;;;;;5016385;28;20192;-83
2023/06/17 05:06:49;;;;;;;12.93;5.90;;;14.50;99.90;;;;;;5016149;28;20634;-85
2023/06/17 05:09:14;;;;;;;10.52;6.43;;;14.50;99.90;;;;;;5016200;28;20673;-84
2023/06/17 05:11:42;;;;;;;11.18;6.90;;;14.60;99.90;;;;;;5015970;28;20447;-84
2023/06/17 05:14:08;;;;;;;9.15;5.53;;;14.50;99.90;;;;;;5016297;28;20189;-85
2023/06/17 05:16:34;;;;;;;10.70;5.88;;;14.60;99.90;;;;;;5016256;28;20209;-85
2023/06/17 05:19:00;;;;;;;9.20;6.95;;;14.60;99.90;;;;;;5015924;28;20212;-86
2023/06/17 05:21:26;;;;;;;11.40;6.97;;;14.60;99.90;;;;;;5015741;28;20243;-82
2023/06/17 05:23:52;;;;;;;12.20;7.10;;;14.70;99.90;;;;;;5015685;28;20597;-85
2023/06/17 05:26:17;;;;;;;9.07;6.20;;;14.70;99.90;;;;;;5015799;28;20643;-85
2023/06/17 05:28:43;;;;;;;13.20;5.88;;;14.70;99.90;;;;;;5015930;28;20204;-86
2023/06/17 05:31:10;;;;;;;10.48;6.40;;;14.80;99.90;;;;;;5012237;28;20193;-87
2023/06/17 05:33:36;;;;;;;8.18;5.68;;;14.90;99.90;;;;;;5001595;28;20182;-86
2023/06/17 05:36:01;;;;;;;8.75;6.28;;;14.90;99.90;;;;;;4995047;28;20206;-87
2023/06/17 05:38:28;;;;;;;8.20;5.60;;;15.00;99.90;;;;;;4995619;28;20218;-86
2023/06/17 05:40:53;;;;;;;8.68;5.70;;;15.00;99.90;;;;;;4995413;28;20188;-86
2023/06/17 05:43:19;;;;;;;8.95;4.97;;;15.00;99.90;;;;;;4998180;28;20580;-86
2023/06/17 05:45:46;;;;;;;8.85;5.90;;;15.00;99.90;;;;;;5008010;28;20197;-86
2023/06/17 05:48:12;;;;;;;9.07;5.93;;;15.00;99.90;;;;;;4996232;28;20215;-87
2023/06/17 05:50:38;;;;;;;10.55;6.00;;;15.10;99.90;;;;;;4999804;28;20221;-87
2023/06/17 05:53:04;;;;;;;7.95;5.72;;;15.10;99.90;;;;;;5000728;28;20178;-86
2023/06/17 05:55:30;;;;;;;8.73;5.57;;;15.10;99.90;;;;;;4979580;28;20212;-87
2023/06/17 05:57:55;;;;;;;8.88;6.03;;;15.10;99.90;;;;;;4995170;28;20178;-84
2023/06/17 06:00:24;;;;;;;10.48;6.68;;;15.10;99.90;;;;;;4995297;28;20212;-84
2023/06/17 06:02:50;;;;;;;8.02;5.57;;;15.10;99.90;;;;;;4994920;28;20212;-84
2023/06/17 06:05:16;;;;;;;8.25;5.40;;;15.20;99.90;;;;;;4995036;28;20182;-84
2023/06/17 06:07:43;;;;;;;8.55;6.13;;;15.20;99.90;;;;;;4994680;28;20186;-85
2023/06/17 06:10:10;;;;;;;10.45;6.47;;;15.20;99.90;;;;;;4977028;28;20190;-86
2023/06/17 06:12:37;;;;;;;7.85;5.93;;;15.20;99.90;;;;;;4996999;28;20592;-84
2023/06/17 06:15:03;;;;;;;9.85;6.90;;;15.20;99.90;;;;;;4977071;28;20252;-85
2023/06/17 06:17:30;;;;;;;8.55;6.18;;;15.20;99.90;;;;;;4997450;28;20173;-84
2023/06/17 06:19:56;;;;;;;9.52;6.38;;;15.20;99.90;;;;;;5013688;28;20185;-84
2023/06/17 06:22:22;;;;;;;9.43;6.47;;;15.10;99.90;;;;;;5009404;28;20197;-86
2023/06/17 06:24:47;;;;;;;12.88;6.20;;;15.10;99.90;;;;;;4995102;28;20635;-86
2023/06/17 06:27:13;;;;;;;9.50;6.25;;;15.10;99.90;;;;;;4994404;28;20233;-88
2023/06/17 06:29:39;;;;;;;8.43;5.88;;;15.10;99.90;;;;;;4977577;28;20210;-87
2023/06/17 06:32:05;;;;;;;10.50;6.45;;;15.10;99.90;;;;;;4994439;28;20233;-87
2023/06/17 06:34:30;;;;;;;11.23;6.65;;;15.10;99.90;;;;;;4994676;28;20182;-87
2023/06/17 06:36:58;;;;;;;9.18;6.25;;;15.10;99.90;;;;;;4994397;28;20557;-89
2023/06/17 06:39:24;;;;;;;9.38;6.28;;;15.10;99.90;;;;;;4995114;28;20188;-89
2023/06/17 06:41:50;;;;;;;11.25;7.13;;;15.10;99.90;;;;;;4994922;28;20181;-88
2023/06/17 06:44:16;;;;;;;11.77;7.50;;;15.10;99.90;;;;;;4994437;28;20585;-89
2023/06/17 06:46:42;;;;;;;10.55;7.07;;;15.10;99.90;;;;;;4994728;28;20189;-88
2023/06/17 06:49:08;;;;;;;10.60;7.30;;;15.10;99.90;;;;;;4993953;28;20567;-88
2023/06/17 06:51:34;;;;;;;11.43;7.35;;;15.10;99.90;;;;;;4998579;28;20549;-88
2023/06/17 06:54:00;;;;;;;12.50;7.78;;;15.10;99.90;;;;;;5013786;28;20232;-87
2023/06/17 06:56:26;;;;;;;14.07;7.13;;;15.10;99.90;;;;;;5014040;28;20212;-89
2023/06/17 06:58:52;;;;;;;11.48;6.70;;;15.10;99.90;;;;;;5013962;28;20661;-87
2023/06/17 07:01:18;;;;;;;11.88;7.32;;;15.20;99.90;;;;;;5013628;28;20209;-86
2023/06/17 07:03:44;;;;;;;13.10;8.05;;;15.20;99.90;;;;;;4996642;28;20173;-88
2023/06/17 07:06:10;;;;;;;13.65;8.57;;;15.20;99.90;;;;;;5013718;28;20182;-88
2023/06/17 07:08:35;;;;;;;11.73;7.80;;;15.20;99.90;;;;;;4996041;28;20197;-88
2023/06/17 07:11:01;;;;;;;16.40;8.77;;;15.20;99.90;;;;;;5012518;28;20192;-87
2023/06/17 07:13:27;;;;;;;12.43;8.23;;;15.20;99.90;;;;;;4995792;28;20180;-88
2023/06/17 07:15:53;;;;;;;15.68;8.18;;;15.20;99.90;;;;;;5013001;28;20272;-88
2023/06/17 07:18:18;;;;;;;19.67;9.00;;;15.20;99.90;;;;;;5007365;28;20229;-88
2023/06/17 07:20:44;;;;;;;12.77;8.63;;;15.30;99.90;;;;;;5011152;28;20177;-86
2023/06/17 07:23:10;;;;;;;13.90;7.90;;;15.20;99.90;;;;;;5011161;28;20527;-88
2023/06/17 07:25:36;;;;;;;11.38;8.02;;;15.30;99.90;;;;;;5000363;28;20712;-86
2023/06/17 07:28:02;;;;;;;12.68;7.70;;;15.30;99.90;;;;;;5010524;28;20237;-85
2023/06/17 07:30:29;;;;;;;15.30;9.40;;;15.30;99.90;;;;;;5010939;28;20205;-87
2023/06/17 07:32:55;;;;;;;13.52;8.15;;;15.30;99.90;;;;;;4990302;28;20198;-87
2023/06/17 07:35:21;;;;;;;14.60;9.20;;;15.40;99.90;;;;;;5010013;28;20649;-87
2023/06/17 07:37:50;;;;;;;15.85;8.05;;;15.40;99.90;;;;;;5010801;28;20208;-88
2023/06/17 07:40:16;;;;;;;13.70;7.40;;;15.40;99.90;;;;;;5010741;28;20644;-87
2023/06/17 07:42:42;;;;;;;13.32;7.95;;;15.50;99.90;;;;;;5010674;28;20188;-87
2023/06/17 07:45:09;;;;;;;10.82;7.85;;;15.50;99.90;;;;;;5010448;28;20197;-87
2023/06/17 07:47:35;;;;;;;12.00;7.32;;;15.50;99.90;;;;;;5010680;28;20177;-86
2023/06/17 07:50:01;;;;;;;12.48;7.15;;;15.50;99.90;;;;;;5010417;28;20674;-84
2023/06/17 07:52:27;;;;;;;10.80;7.47;;;15.60;99.90;;;;;;5007406;28;20209;-85
2023/06/17 07:54:53;;;;;;;12.98;7.38;;;15.60;99.90;;;;;;4993514;28;20264;-85
2023/06/17 07:57:19;;;;;;;9.57;7.10;;;15.70;99.90;;;;;;4992816;28;20534;-88
2023/06/17 07:59:44;;;;;;;10.18;6.75;;;15.70;99.90;;;;;;5007895;28;20173;-87
2023/06/17 08:02:10;;;;;;;11.15;7.18;;;15.80;99.90;;;;;;5008210;28;20240;-85
2023/06/17 08:04:37;;;;;;;11.10;6.80;;;15.70;99.90;;;;;;4993602;28;20196;-86
2023/06/17 08:07:04;;;;;;;10.60;7.00;;;15.70;99.90;;;;;;5006342;28;20634;-87
2023/06/17 08:09:30;;;;;;;10.50;6.78;;;15.70;99.90;;;;;;5003479;28;20236;-88
2023/06/17 08:11:56;;;;;;;10.25;6.65;;;15.80;99.90;;;;;;5008607;28;20563;-89
2023/06/17 08:14:21;;;;;;;11.45;7.13;;;15.80;99.90;;;;;;5007003;28;20194;-91
2023/06/17 08:16:47;;;;;;;12.40;6.93;;;15.80;99.90;;;;;;5010575;28;20615;-88
2023/06/17 08:19:13;;;;;;;10.93;6.90;;;15.80;99.90;;;;;;4997330;28;20785;-88
2023/06/17 08:21:41;;;;;;;12.82;7.13;;;15.80;99.90;;;;;;5006647;28;20551;-88
2023/06/17 08:24:25;;;;;;;14.05;7.50;;;15.90;99.90;;;;;;5016479;28;20737;-87
2023/06/17 08:26:51;;;;;;;12.52;7.60;;;15.90;99.90;;;;;;5002562;28;20220;-85
2023/06/17 08:29:18;;;;;;;10.63;6.90;;;15.80;99.90;;;;;;4997407;28;20224;-87
2023/06/17 08:31:45;;;;;;;12.90;7.68;;;15.80;99.90;;;;;;4997575;28;20219;-87
2023/06/17 08:34:12;;;;;;;13.23;8.35;;;15.80;99.90;;;;;;4994385;28;20264;-89
2023/06/17 08:36:40;;;;;;;12.45;8.90;;;15.70;99.90;;;;;;5024871;28;20598;-85
2023/06/17 08:39:06;;;;;;;13.48;8.30;;;15.70;99.90;;;;;;5034368;28;20184;-85
2023/06/17 08:41:39;;;;;;;12.40;8.35;;;15.70;99.90;;;;;;5010798;28;20284;-85
2023/06/17 08:44:06;;;;;;;14.27;7.90;;;15.80;99.90;;;;;;4987406;28;20548;-86
2023/06/17 08:46:32;;;;;;;12.70;8.38;;;15.80;99.90;;;;;;5005959;28;20193;-88
2023/06/17 08:48:58;;;;;;;14.27;7.55;;;15.90;99.90;;;;;;4980663;28;20658;-85
2023/06/17 08:51:24;;;;;;;12.65;7.80;;;16.00;99.90;;;;;;5013879;28;20212;-83
2023/06/17 08:53:51;;;;;;;11.60;7.25;;;16.10;99.90;;;;;;4979676;28;20688;-85
2023/06/17 08:56:17;;;;;;;13.68;7.93;;;16.20;99.90;;;;;;5013325;28;20196;-84
2023/06/17 08:58:44;;;;;;;11.70;7.15;;;16.30;99.90;;;;;;4996943;28;20194;-86
2023/06/17 09:01:14;;;;;;;10.68;7.32;;;16.40;99.90;;;;;;4988802;28;20574;-83
2023/06/17 09:03:43;;;;;;;9.90;6.95;;;16.40;99.90;;;;;;4978041;28;20189;-85
2023/06/17 09:06:38;;;;;;;10.15;6.93;;;16.50;99.90;;;;;;5013440;28;20188;-87
2023/06/17 09:09:04;;;;;;;9.80;6.15;;;16.50;99.90;;;;;;4971432;28;20228;-88
2023/06/17 09:11:32;;;;;;;8.27;5.80;;;16.40;99.90;;;;;;5006631;28;20216;-86
2023/06/17 09:14:01;;;;;;;9.85;5.50;;;16.40;99.90;;;;;;5011813;28;20643;-88
2023/06/17 09:16:29;;;;;;;8.48;6.40;;;16.60;99.90;;;;;;5012493;28;20185;-86
2023/06/17 09:18:59;;;;;;;9.82;5.50;;;16.70;99.90;;;;;;4994707;28;20201;-85
2023/06/17 09:21:26;;;;;;;8.13;5.53;;;16.80;99.90;;;;;;5014622;28;20161;-93
2023/06/17 09:23:54;;;;;;;7.32;5.32;;;16.90;99.90;;;;;;4996680;28;20589;-89
2023/06/17 09:26:25;;;;;;;7.63;5.70;;;17.00;99.90;;;;;;4978570;28;20459;-89
2023/06/17 09:28:51;;;;;;;8.27;4.68;;;17.00;99.90;;;;;;5004666;28;20722;-89
2023/06/17 09:31:18;;;;;;;6.72;4.97;;;17.00;99.90;;;;;;4998012;28;20308;-87
2023/06/17 09:33:44;;;;;;;9.60;4.90;;;17.00;99.90;;;;;;4997235;28;20192;-90
2023/06/17 09:36:11;;;;;;;5.47;4.10;;;17.10;99.90;;;;;;5015677;28;20185;-89
2023/06/17 09:38:38;;;;;;;8.45;4.53;;;17.20;99.90;;;;;;4981351;28;20192;-88
2023/06/17 09:41:04;;;;;;;6.15;4.72;;;17.30;99.90;;;;;;4994913;28;20659;-87
2023/06/17 09:43:30;;;;;;;6.32;4.28;;;17.30;99.90;;;;;;5014651;28;20184;-90
2023/06/17 09:45:59;;;;;;;5.75;4.35;;;17.30;99.90;;;;;;4999785;28;20186;-88
2023/06/17 09:48:34;;;;;;;6.78;4.60;;;17.40;99.90;;;;;;4977743;28;20213;-89
2023/06/17 09:51:00;;;;;;;7.57;4.30;;;17.40;99.90;;;;;;4982577;28;20177;-89
2023/06/17 09:53:29;;;;;;;6.45;4.38;;;17.40;99.90;;;;;;5012019;28;20208;-89
2023/06/17 09:55:57;;;;;;;5.75;4.38;;;17.40;99.90;;;;;;4976804;28;20593;-87
2023/06/17 09:58:30;;;;;;;4.80;3.80;;;17.50;99.90;;;;;;4978326;28;20698;-89
2023/06/17 10:01:00;;;;;;;7.55;4.15;;;17.70;99.90;;;;;;4995615;28;20220;-89
2023/06/17 10:03:27;;;;;;;6.85;5.40;;;17.70;99.90;;;;;;4977679;28;20182;-87
2023/06/17 10:06:00;;;;;;;5.97;4.32;;;17.80;99.90;;;;;;4997156;28;20268;-89
2023/06/17 10:08:26;;;;;;;5.25;3.72;;;17.80;99.90;;;;;;4997082;28;20204;-87
2023/06/17 10:10:55;;;;;;;6.50;4.82;;;17.80;99.90;;;;;;4997960;28;20222;-86
2023/06/17 10:13:22;;;;;;;5.97;4.50;;;17.80;99.90;;;;;;4997121;28;20181;-86
2023/06/17 10:15:50;;;;;;;6.97;4.40;;;17.90;99.90;;;;;;4998230;28;20185;-86
2023/06/17 10:18:18;;;;;;;6.47;4.65;;;18.00;99.90;;;;;;5013529;28;20199;-86
2023/06/17 10:20:46;;;;;;;6.97;4.28;;;18.00;99.90;;;;;;4997341;28;20192;-87
2023/06/17 10:23:12;;;;;;;7.15;5.05;;;17.90;99.90;;;;;;5015026;28;20174;-86
2023/06/17 10:25:40;;;;;;;7.15;4.28;;;17.90;99.90;;;;;;5014406;28;20264;-86
2023/06/17 10:28:06;;;;;;;4.93;3.47;;;18.00;99.90;;;;;;5013303;28;20289;-87
2023/06/17 10:30:32;;;;;;;4.25;3.50;;;18.20;99.90;;;;;;4993786;28;20715;-87
2023/06/17 10:33:03;;;;;;;4.43;3.63;;;18.30;99.90;;;;;;4988016;28;20177;-86
2023/06/17 10:35:43;;;;;;;10.25;4.18;;;18.50;99.90;;;;;;5003798;28;20180;-87
2023/06/17 10:38:26;;;;;;;5.82;4.00;;;18.40;99.90;;;;;;4986004;28;20264;-86
2023/06/17 10:40:51;;;;;;;4.53;3.88;;;18.30;99.90;;;;;;5002110;28;20215;-85
2023/06/17 10:43:19;;;;;;;4.70;3.92;;;18.30;99.90;;;;;;4991035;28;20209;-86
2023/06/17 10:45:55;;;;;;;7.45;4.70;;;18.30;99.90;;;;;;4979520;28;20641;-86
2023/06/17 10:48:28;;;;;;;5.75;4.15;;;18.30;99.90;;;;;;5013844;28;20645;-86
2023/06/17 10:51:00;;;;;;;14.55;5.72;;;18.30;99.90;;;;;;4995136;28;20227;-87
2023/06/17 10:53:30;;;;;;;5.13;4.25;;;18.40;99.90;;;;;;4995094;28;20181;-88
2023/06/17 10:55:57;;;;;;;5.57;4.40;;;18.40;99.90;;;;;;4996539;28;20541;-88
2023/06/17 10:58:30;;;;;;;5.22;3.97;;;18.40;99.90;;;;;;4996468;28;20189;-87
2023/06/17 11:01:00;;;;;;;5.97;4.53;;;18.40;99.90;;;;;;4996361;28;20227;-87
2023/06/17 11:03:27;;;;;;;6.53;4.35;;;18.40;99.90;;;;;;4980236;28;20185;-87
2023/06/17 11:05:53;;;;;;;5.60;4.32;;;18.40;99.90;;;;;;5013881;28;20182;-87
2023/06/17 11:08:19;;;;;;;5.35;4.18;;;18.30;99.90;;;;;;4996289;28;20221;-90
2023/06/17 11:10:44;;;;;;;6.05;4.03;;;18.30;99.90;;;;;;5013770;28;20540;-87
2023/06/17 11:13:12;;;;;;;9.18;6.38;;;18.40;99.90;;;;;;4996509;28;20204;-87
2023/06/17 11:15:38;;;;;;;6.68;4.93;;;18.40;99.90;;;;;;4979915;28;20185;-86
2023/06/17 11:18:04;;;;;;;4.93;3.58;;;18.50;99.90;;;;;;4996233;28;20193;-86
2023/06/17 11:20:35;;;;;;;4.90;4.18;;;18.50;99.90;;;;;;4979680;28;20188;-89
2023/06/17 11:23:04;;;;;;;5.78;4.60;;;18.50;99.90;;;;;;5012659;28;20212;-87
2023/06/17 11:25:31;;;;;;;5.47;4.00;;;18.40;99.90;;;;;;4993276;28;20641;-86
2023/06/17 11:27:57;;;;;;;3.97;3.17;;;18.40;99.90;;;;;;4994244;28;20693;-86
2023/06/17 11:30:26;;;;;;;4.60;3.70;;;18.50;99.90;;;;;;5013891;28;20642;-86
2023/06/17 11:32:51;;;;;;;4.63;3.80;;;18.70;99.90;;;;;;5017346;28;20181;-88
2023/06/17 11:35:17;;;;;;;6.43;4.18;;;18.80;99.90;;;;;;4995912;28;20235;-87
2023/06/17 11:37:43;;;;;;;4.72;3.55;;;19.00;99.90;;;;;;4979078;28;20189;-87
2023/06/17 11:40:11;;;;;;;4.43;3.80;;;19.20;99.90;;;;;;4995618;28;20176;-86
2023/06/17 11:42:37;;;;;;;4.15;3.75;;;19.30;99.90;;;;;;4978850;28;20177;-87
2023/06/17 11:45:04;;;;;;;4.40;3.38;;;19.40;99.90;;;;;;4995838;28;20177;-88
2023/06/17 11:47:33;;;;;;;5.13;3.85;;;19.50;99.90;;;;;;4995158;28;20185;-87
2023/06/17 11:49:59;;;;;;;6.03;3.60;;;19.50;99.90;;;;;;5012858;28;20197;-87
2023/06/17 11:52:25;;;;;;;3.50;2.92;;;19.60;99.90;;;;;;5006682;28;20243;-87
2023/06/17 11:54:51;;;;;;;3.50;3.17;;;19.70;99.90;;;;;;4977044;28;20550;-88
2023/06/17 11:57:22;;;;;;;3.50;3.20;;;19.70;99.90;;;;;;5004903;28;20202;-87
2023/06/17 11:59:48;;;;;;;4.15;3.33;;;19.80;99.90;;;;;;4988765;28;20197;-86
2023/06/17 12:02:15;;;;;;;4.32;3.60;;;19.90;99.90;;;;;;4980458;28;20193;-88
2023/06/17 12:04:45;;;;;;;3.38;2.90;;;19.80;99.90;;;;;;4980014;28;20193;-87
2023/06/17 12:07:11;;;;;;;4.72;3.70;;;19.80;99.90;;;;;;4997836;28;20188;-87
2023/06/17 12:09:58;;;;;;;4.82;3.10;;;19.90;99.90;;;;;;4995980;28;20201;-91
2023/06/17 12:12:32;;;;;;;4.28;3.40;;;19.90;99.90;;;;;;4996107;28;20261;-87
2023/06/17 12:15:09;;;;;;;5.95;4.05;;;19.90;99.90;;;;;;4997286;28;20208;-89
2023/06/17 12:17:50;;;;;;;3.55;3.03;;;19.80;99.90;;;;;;4978813;28;20306;-88
2023/06/17 12:20:18;;;;;;;3.58;2.80;;;19.60;99.90;;;;;;4979101;28;20186;-88
2023/06/17 12:22:46;;;;;;;4.25;3.33;;;19.60;99.90;;;;;;4996285;28;20628;-88
2023/06/17 12:25:12;;;;;;;4.78;3.88;;;19.50;99.90;;;;;;4996457;28;20282;-88
2023/06/17 12:27:39;;;;;;;6.30;3.25;;;19.50;99.90;;;;;;4995822;28;20269;-88
2023/06/17 12:30:06;;;;;;;4.82;2.90;;;19.60;99.90;;;;;;4996433;28;20221;-89
2023/06/17 12:32:32;;;;;;;4.45;3.85;;;19.60;99.90;;;;;;4996396;28;20173;-88
2023/06/17 12:34:59;;;;;;;4.00;3.38;;;19.80;99.90;;;;;;4979288;28;20182;-87
2023/06/17 12:37:27;;;;;;;2.88;2.55;;;19.80;99.90;;;;;;4978333;28;20601;-89
2023/06/17 12:39:58;;;;;;;6.50;3.80;;;19.90;99.90;;;;;;4978728;28;20189;-88
2023/06/17 12:42:24;;;;;;;4.50;3.53;;;19.90;99.90;;;;;;4979595;28;20177;-88